sensor_id;sensor_type;location;lat;lon;timestamp;P1;durP1;ratioP1;P2;durP2;ratioP2
28296;SDS011;62078;49.366;8.172;2023-03-24T00:02:22;5.57;;;1.60;;
28296;SDS011;62078;49.366;8.172;2023-03-24T00:04:49;4.28;;;1.98;;
28296;SDS011;62078;49.366;8.172;2023-03-24T00:07:17;4.43;;;2.00;;
28296;SDS011;62078;49.366;8.172;2023-03-24T00:09:47;5.32;;;1.80;;
28296;SDS011;62078;49.366;8.172;2023-03-24T00:12:13;4.25;;;1.65;;
28296;SDS011;62078;49.366;8.172;2023-03-24T00:14:42;3.75;;;1.70;;
28296;SDS011;62078;49.366;8.172;2023-03-24T00:17:10;6.15;;;1.80;;
28296;SDS011;62078;49.366;8.172;2023-03-24T00:19:38;4.13;;;1.92;;
28296;SDS011;62078;49.366;8.172;2023-03-24T00:22:05;3.90;;;1.73;;
28296;SDS011;62078;49.366;8.172;2023-03-24T00:24:32;3.72;;;1.80;;
28296;SDS011;62078;49.366;8.172;2023-03-24T00:26:59;4.93;;;2.10;;
28296;SDS011;62078;49.366;8.172;2023-03-24T00:29:25;5.95;;;1.75;;
28296;SDS011;62078;49.366;8.172;2023-03-24T00:31:51;4.35;;;1.70;;
28296;SDS011;62078;49.366;8.172;2023-03-24T00:34:20;3.80;;;1.65;;
28296;SDS011;62078;49.366;8.172;2023-03-24T00:36:47;2.83;;;1.35;;
28296;SDS011;62078;49.366;8.172;2023-03-24T00:39:14;4.13;;;1.40;;
28296;SDS011;62078;49.366;8.172;2023-03-24T00:41:42;4.78;;;1.90;;
28296;SDS011;62078;49.366;8.172;2023-03-24T00:44:12;4.63;;;1.92;;
28296;SDS011;62078;49.366;8.172;2023-03-24T00:46:44;5.32;;;1.73;;
28296;SDS011;62078;49.366;8.172;2023-03-24T00:49:19;4.15;;;1.58;;
28296;SDS011;62078;49.366;8.172;2023-03-24T00:52:06;4.80;;;1.83;;
28296;SDS011;62078;49.366;8.172;2023-03-24T00:54:37;3.33;;;1.73;;
28296;SDS011;62078;49.366;8.172;2023-03-24T00:57:04;3.33;;;1.70;;
28296;SDS011;62078;49.366;8.172;2023-03-24T00:59:31;3.78;;;1.80;;
28296;SDS011;62078;49.366;8.172;2023-03-24T01:02:02;5.05;;;1.65;;
28296;SDS011;62078;49.366;8.172;2023-03-24T01:04:28;9.30;;;2.38;;
28296;SDS011;62078;49.366;8.172;2023-03-24T01:06:54;4.13;;;2.08;;
28296;SDS011;62078;49.366;8.172;2023-03-24T01:09:22;3.58;;;1.35;;
28296;SDS011;62078;49.366;8.172;2023-03-24T01:11:48;4.20;;;1.75;;
28296;SDS011;62078;49.366;8.172;2023-03-24T01:14:15;3.33;;;1.67;;
28296;SDS011;62078;49.366;8.172;2023-03-24T01:16:41;6.60;;;1.70;;
28296;SDS011;62078;49.366;8.172;2023-03-24T01:19:07;3.45;;;1.55;;
28296;SDS011;62078;49.366;8.172;2023-03-24T01:21:35;6.75;;;1.45;;
28296;SDS011;62078;49.366;8.172;2023-03-24T01:24:02;4.45;;;1.30;;
28296;SDS011;62078;49.366;8.172;2023-03-24T01:26:29;3.55;;;1.50;;
28296;SDS011;62078;49.366;8.172;2023-03-24T01:28:55;3.08;;;1.48;;
28296;SDS011;62078;49.366;8.172;2023-03-24T01:31:21;3.97;;;2.05;;
28296;SDS011;62078;49.366;8.172;2023-03-24T01:33:47;3.90;;;1.80;;
28296;SDS011;62078;49.366;8.172;2023-03-24T01:36:12;3.88;;;1.13;;
28296;SDS011;62078;49.366;8.172;2023-03-24T01:38:38;3.45;;;1.60;;
28296;SDS011;62078;49.366;8.172;2023-03-24T01:41:04;3.78;;;1.55;;
28296;SDS011;62078;49.366;8.172;2023-03-24T01:43:31;4.43;;;1.73;;
28296;SDS011;62078;49.366;8.172;2023-03-24T01:46:17;5.00;;;1.65;;
28296;SDS011;62078;49.366;8.172;2023-03-24T01:51:41;4.28;;;1.70;;
28296;SDS011;62078;49.366;8.172;2023-03-24T01:54:18;2.97;;;1.60;;
28296;SDS011;62078;49.366;8.172;2023-03-24T01:56:51;4.75;;;1.92;;
28296;SDS011;62078;49.366;8.172;2023-03-24T01:59:22;4.47;;;1.77;;
28296;SDS011;62078;49.366;8.172;2023-03-24T02:01:51;5.07;;;1.88;;
28296;SDS011;62078;49.366;8.172;2023-03-24T02:04:27;4.38;;;1.33;;
28296;SDS011;62078;49.366;8.172;2023-03-24T02:07:00;6.18;;;1.60;;
28296;SDS011;62078;49.366;8.172;2023-03-24T02:09:42;5.00;;;2.30;;
28296;SDS011;62078;49.366;8.172;2023-03-24T02:12:08;4.57;;;1.45;;
28296;SDS011;62078;49.366;8.172;2023-03-24T02:14:35;3.00;;;1.33;;
28296;SDS011;62078;49.366;8.172;2023-03-24T02:17:11;3.47;;;1.60;;
28296;SDS011;62078;49.366;8.172;2023-03-24T02:19:52;3.78;;;1.73;;
28296;SDS011;62078;49.366;8.172;2023-03-24T02:28:23;3.92;;;1.77;;
28296;SDS011;62078;49.366;8.172;2023-03-24T02:31:14;3.55;;;1.58;;
28296;SDS011;62078;49.366;8.172;2023-03-24T02:34:07;4.22;;;1.48;;
28296;SDS011;62078;49.366;8.172;2023-03-24T02:52:44;4.75;;;1.52;;
28296;SDS011;62078;49.366;8.172;2023-03-24T02:55:21;4.05;;;1.58;;
28296;SDS011;62078;49.366;8.172;2023-03-24T02:57:56;5.18;;;1.73;;
28296;SDS011;62078;49.366;8.172;2023-03-24T03:00:43;3.78;;;1.42;;
28296;SDS011;62078;49.366;8.172;2023-03-24T03:06:11;3.03;;;1.48;;
28296;SDS011;62078;49.366;8.172;2023-03-24T03:08:45;3.20;;;1.70;;
28296;SDS011;62078;49.366;8.172;2023-03-24T03:11:13;3.33;;;1.20;;
28296;SDS011;62078;49.366;8.172;2023-03-24T03:13:47;4.10;;;1.60;;
28296;SDS011;62078;49.366;8.172;2023-03-24T03:16:22;3.05;;;1.27;;
28296;SDS011;62078;49.366;8.172;2023-03-24T03:19:07;3.25;;;1.30;;
28296;SDS011;62078;49.366;8.172;2023-03-24T03:21:42;2.92;;;1.40;;
28296;SDS011;62078;49.366;8.172;2023-03-24T03:24:14;5.05;;;1.80;;
28296;SDS011;62078;49.366;8.172;2023-03-24T03:26:44;4.82;;;1.63;;
28296;SDS011;62078;49.366;8.172;2023-03-24T03:29:17;3.72;;;1.40;;
28296;SDS011;62078;49.366;8.172;2023-03-24T03:31:56;3.10;;;1.52;;
28296;SDS011;62078;49.366;8.172;2023-03-24T03:34:45;3.23;;;1.73;;
28296;SDS011;62078;49.366;8.172;2023-03-24T03:37:38;3.03;;;1.20;;
28296;SDS011;62078;49.366;8.172;2023-03-24T03:40:22;3.78;;;1.60;;
28296;SDS011;62078;49.366;8.172;2023-03-24T03:42:55;2.60;;;1.30;;
28296;SDS011;62078;49.366;8.172;2023-03-24T03:45:21;3.60;;;1.50;;
28296;SDS011;62078;49.366;8.172;2023-03-24T03:47:47;4.28;;;1.85;;
28296;SDS011;62078;49.366;8.172;2023-03-24T03:50:14;4.20;;;1.70;;
28296;SDS011;62078;49.366;8.172;2023-03-24T03:52:40;3.08;;;1.58;;
28296;SDS011;62078;49.366;8.172;2023-03-24T03:55:08;3.17;;;1.40;;
28296;SDS011;62078;49.366;8.172;2023-03-24T03:57:36;3.78;;;1.90;;
28296;SDS011;62078;49.366;8.172;2023-03-24T04:00:04;2.95;;;1.45;;
28296;SDS011;62078;49.366;8.172;2023-03-24T04:05:24;3.35;;;1.58;;
28296;SDS011;62078;49.366;8.172;2023-03-24T04:15:53;4.32;;;1.55;;
28296;SDS011;62078;49.366;8.172;2023-03-24T04:26:27;3.22;;;1.58;;
28296;SDS011;62078;49.366;8.172;2023-03-24T04:29:09;5.38;;;2.08;;
28296;SDS011;62078;49.366;8.172;2023-03-24T04:31:47;3.40;;;1.63;;
28296;SDS011;62078;49.366;8.172;2023-03-24T04:34:22;3.15;;;1.63;;
28296;SDS011;62078;49.366;8.172;2023-03-24T04:36:59;3.42;;;1.30;;
28296;SDS011;62078;49.366;8.172;2023-03-24T04:39:38;3.97;;;1.60;;
28296;SDS011;62078;49.366;8.172;2023-03-24T04:42:08;3.35;;;1.40;;
28296;SDS011;62078;49.366;8.172;2023-03-24T04:44:41;3.50;;;1.40;;
28296;SDS011;62078;49.366;8.172;2023-03-24T04:47:08;3.92;;;1.70;;
28296;SDS011;62078;49.366;8.172;2023-03-24T04:49:37;3.70;;;1.85;;
28296;SDS011;62078;49.366;8.172;2023-03-24T04:52:04;4.47;;;1.75;;
28296;SDS011;62078;49.366;8.172;2023-03-24T04:54:30;3.08;;;1.40;;
28296;SDS011;62078;49.366;8.172;2023-03-24T04:56:57;3.70;;;1.70;;
28296;SDS011;62078;49.366;8.172;2023-03-24T04:59:26;3.75;;;1.77;;
28296;SDS011;62078;49.366;8.172;2023-03-24T05:01:52;3.85;;;1.73;;
28296;SDS011;62078;49.366;8.172;2023-03-24T05:04:19;3.80;;;1.75;;
28296;SDS011;62078;49.366;8.172;2023-03-24T05:06:46;3.72;;;1.80;;
28296;SDS011;62078;49.366;8.172;2023-03-24T05:09:14;3.38;;;1.60;;
28296;SDS011;62078;49.366;8.172;2023-03-24T05:11:42;2.92;;;1.52;;
28296;SDS011;62078;49.366;8.172;2023-03-24T05:14:08;3.75;;;1.60;;
28296;SDS011;62078;49.366;8.172;2023-03-24T05:16:34;2.97;;;1.42;;
28296;SDS011;62078;49.366;8.172;2023-03-24T05:19:00;3.70;;;1.77;;
28296;SDS011;62078;49.366;8.172;2023-03-24T05:21:27;3.20;;;1.75;;
28296;SDS011;62078;49.366;8.172;2023-03-24T05:23:53;3.60;;;2.00;;
28296;SDS011;62078;49.366;8.172;2023-03-24T05:26:18;3.83;;;1.65;;
28296;SDS011;62078;49.366;8.172;2023-03-24T05:28:44;3.45;;;1.60;;
28296;SDS011;62078;49.366;8.172;2023-03-24T05:31:10;4.78;;;1.30;;
28296;SDS011;62078;49.366;8.172;2023-03-24T05:33:36;4.90;;;2.05;;
28296;SDS011;62078;49.366;8.172;2023-03-24T05:36:02;3.00;;;1.40;;
28296;SDS011;62078;49.366;8.172;2023-03-24T05:38:28;3.60;;;1.63;;
28296;SDS011;62078;49.366;8.172;2023-03-24T05:40:57;4.20;;;1.50;;
28296;SDS011;62078;49.366;8.172;2023-03-24T05:43:24;3.78;;;1.60;;
28296;SDS011;62078;49.366;8.172;2023-03-24T05:45:51;5.32;;;2.20;;
28296;SDS011;62078;49.366;8.172;2023-03-24T05:48:17;4.25;;;1.60;;
28296;SDS011;62078;49.366;8.172;2023-03-24T05:50:43;4.57;;;1.95;;
28296;SDS011;62078;49.366;8.172;2023-03-24T05:53:09;5.82;;;1.80;;
28296;SDS011;62078;49.366;8.172;2023-03-24T05:55:35;3.42;;;1.52;;
28296;SDS011;62078;49.366;8.172;2023-03-24T05:58:01;5.38;;;1.48;;
28296;SDS011;62078;49.366;8.172;2023-03-24T06:00:30;6.22;;;1.50;;
28296;SDS011;62078;49.366;8.172;2023-03-24T06:02:58;3.85;;;1.60;;
28296;SDS011;62078;49.366;8.172;2023-03-24T06:05:24;6.45;;;1.85;;
28296;SDS011;62078;49.366;8.172;2023-03-24T06:07:50;7.35;;;2.00;;
28296;SDS011;62078;49.366;8.172;2023-03-24T06:10:22;21.20;;;2.65;;
28296;SDS011;62078;49.366;8.172;2023-03-24T06:12:52;5.97;;;1.48;;
28296;SDS011;62078;49.366;8.172;2023-03-24T06:15:19;6.85;;;2.00;;
28296;SDS011;62078;49.366;8.172;2023-03-24T06:17:46;8.07;;;1.90;;
28296;SDS011;62078;49.366;8.172;2023-03-24T06:20:14;3.83;;;1.60;;
28296;SDS011;62078;49.366;8.172;2023-03-24T06:22:43;16.60;;;2.00;;
28296;SDS011;62078;49.366;8.172;2023-03-24T06:25:10;3.63;;;1.80;;
28296;SDS011;62078;49.366;8.172;2023-03-24T06:27:36;3.03;;;1.45;;
28296;SDS011;62078;49.366;8.172;2023-03-24T06:30:06;6.13;;;2.20;;
28296;SDS011;62078;49.366;8.172;2023-03-24T06:32:32;10.15;;;2.20;;
28296;SDS011;62078;49.366;8.172;2023-03-24T06:34:58;10.45;;;2.30;;
28296;SDS011;62078;49.366;8.172;2023-03-24T06:37:24;5.72;;;1.80;;
28296;SDS011;62078;49.366;8.172;2023-03-24T06:39:51;16.17;;;2.33;;
28296;SDS011;62078;49.366;8.172;2023-03-24T06:42:17;9.25;;;2.03;;
28296;SDS011;62078;49.366;8.172;2023-03-24T06:44:43;14.93;;;3.03;;
28296;SDS011;62078;49.366;8.172;2023-03-24T06:47:08;12.50;;;2.22;;
28296;SDS011;62078;49.366;8.172;2023-03-24T06:49:34;9.07;;;2.25;;
28296;SDS011;62078;49.366;8.172;2023-03-24T06:52:01;14.65;;;2.90;;
28296;SDS011;62078;49.366;8.172;2023-03-24T06:54:28;9.40;;;2.97;;
28296;SDS011;62078;49.366;8.172;2023-03-24T06:56:53;14.82;;;2.80;;
28296;SDS011;62078;49.366;8.172;2023-03-24T06:59:20;13.35;;;2.83;;
28296;SDS011;62078;49.366;8.172;2023-03-24T07:01:51;17.15;;;3.40;;
28296;SDS011;62078;49.366;8.172;2023-03-24T07:04:17;15.88;;;3.38;;
28296;SDS011;62078;49.366;8.172;2023-03-24T07:06:43;12.50;;;3.67;;
28296;SDS011;62078;49.366;8.172;2023-03-24T07:09:09;13.70;;;3.63;;
28296;SDS011;62078;49.366;8.172;2023-03-24T07:11:36;14.05;;;3.28;;
28296;SDS011;62078;49.366;8.172;2023-03-24T07:14:02;15.35;;;3.60;;
28296;SDS011;62078;49.366;8.172;2023-03-24T07:16:28;9.73;;;3.28;;
28296;SDS011;62078;49.366;8.172;2023-03-24T07:18:54;9.88;;;3.38;;
28296;SDS011;62078;49.366;8.172;2023-03-24T07:21:20;15.77;;;3.80;;
28296;SDS011;62078;49.366;8.172;2023-03-24T07:23:46;15.50;;;4.47;;
28296;SDS011;62078;49.366;8.172;2023-03-24T07:26:11;11.57;;;3.50;;
28296;SDS011;62078;49.366;8.172;2023-03-24T07:28:37;16.38;;;3.85;;
28296;SDS011;62078;49.366;8.172;2023-03-24T07:31:03;13.10;;;4.18;;
28296;SDS011;62078;49.366;8.172;2023-03-24T07:33:31;9.90;;;3.65;;
28296;SDS011;62078;49.366;8.172;2023-03-24T07:35:57;16.98;;;4.88;;
28296;SDS011;62078;49.366;8.172;2023-03-24T07:38:24;12.35;;;4.85;;
28296;SDS011;62078;49.366;8.172;2023-03-24T07:40:50;14.70;;;4.88;;
28296;SDS011;62078;49.366;8.172;2023-03-24T07:43:16;12.15;;;3.70;;
28296;SDS011;62078;49.366;8.172;2023-03-24T07:45:43;15.18;;;4.18;;
28296;SDS011;62078;49.366;8.172;2023-03-24T07:48:10;8.48;;;3.90;;
28296;SDS011;62078;49.366;8.172;2023-03-24T07:50:36;11.50;;;3.60;;
28296;SDS011;62078;49.366;8.172;2023-03-24T07:53:02;17.30;;;4.60;;
28296;SDS011;62078;49.366;8.172;2023-03-24T07:55:28;22.02;;;3.85;;
28296;SDS011;62078;49.366;8.172;2023-03-24T07:57:54;12.15;;;3.88;;
28296;SDS011;62078;49.366;8.172;2023-03-24T08:00:20;77.03;;;17.50;;
28296;SDS011;62078;49.366;8.172;2023-03-24T08:02:51;36.13;;;8.02;;
28296;SDS011;62078;49.366;8.172;2023-03-24T08:05:18;32.30;;;7.15;;
28296;SDS011;62078;49.366;8.172;2023-03-24T08:07:48;39.15;;;10.25;;
28296;SDS011;62078;49.366;8.172;2023-03-24T08:10:26;35.00;;;9.70;;
28296;SDS011;62078;49.366;8.172;2023-03-24T08:12:54;36.15;;;9.07;;
28296;SDS011;62078;49.366;8.172;2023-03-24T08:15:21;31.80;;;8.77;;
28296;SDS011;62078;49.366;8.172;2023-03-24T08:17:47;38.00;;;8.82;;
28296;SDS011;62078;49.366;8.172;2023-03-24T08:20:14;31.30;;;8.35;;
28296;SDS011;62078;49.366;8.172;2023-03-24T08:22:41;32.33;;;8.27;;
28296;SDS011;62078;49.366;8.172;2023-03-24T08:25:09;27.75;;;7.60;;
28296;SDS011;62078;49.366;8.172;2023-03-24T08:27:37;31.05;;;7.43;;
28296;SDS011;62078;49.366;8.172;2023-03-24T08:30:07;24.88;;;6.95;;
28296;SDS011;62078;49.366;8.172;2023-03-24T08:32:39;25.00;;;7.20;;
28296;SDS011;62078;49.366;8.172;2023-03-24T08:35:09;25.55;;;7.68;;
28296;SDS011;62078;49.366;8.172;2023-03-24T08:37:38;23.10;;;7.15;;
28296;SDS011;62078;49.366;8.172;2023-03-24T08:40:07;28.08;;;7.15;;
28296;SDS011;62078;49.366;8.172;2023-03-24T08:42:38;21.65;;;6.82;;
28296;SDS011;62078;49.366;8.172;2023-03-24T08:45:05;18.85;;;5.75;;
28296;SDS011;62078;49.366;8.172;2023-03-24T08:47:32;21.63;;;7.47;;
28296;SDS011;62078;49.366;8.172;2023-03-24T08:49:58;18.63;;;6.25;;
28296;SDS011;62078;49.366;8.172;2023-03-24T08:52:24;22.42;;;6.88;;
28296;SDS011;62078;49.366;8.172;2023-03-24T08:54:50;21.95;;;5.82;;
28296;SDS011;62078;49.366;8.172;2023-03-24T08:57:16;19.95;;;6.15;;
28296;SDS011;62078;49.366;8.172;2023-03-24T08:59:42;17.65;;;5.70;;
28296;SDS011;62078;49.366;8.172;2023-03-24T09:02:10;16.73;;;5.53;;
28296;SDS011;62078;49.366;8.172;2023-03-24T09:04:37;17.40;;;5.75;;
28296;SDS011;62078;49.366;8.172;2023-03-24T09:07:03;18.42;;;5.60;;
28296;SDS011;62078;49.366;8.172;2023-03-24T09:09:30;17.23;;;5.60;;
28296;SDS011;62078;49.366;8.172;2023-03-24T09:11:57;12.23;;;5.40;;
28296;SDS011;62078;49.366;8.172;2023-03-24T09:14:23;14.27;;;5.72;;
28296;SDS011;62078;49.366;8.172;2023-03-24T09:16:48;17.10;;;5.80;;
28296;SDS011;62078;49.366;8.172;2023-03-24T09:19:15;12.20;;;4.57;;
28296;SDS011;62078;49.366;8.172;2023-03-24T09:21:45;15.23;;;5.28;;
28296;SDS011;62078;49.366;8.172;2023-03-24T09:24:12;15.43;;;4.35;;
28296;SDS011;62078;49.366;8.172;2023-03-24T09:26:39;14.77;;;4.80;;
28296;SDS011;62078;49.366;8.172;2023-03-24T09:29:05;11.15;;;4.43;;
28296;SDS011;62078;49.366;8.172;2023-03-24T09:31:31;14.15;;;4.57;;
28296;SDS011;62078;49.366;8.172;2023-03-24T09:33:57;12.13;;;4.07;;
28296;SDS011;62078;49.366;8.172;2023-03-24T09:36:24;16.20;;;4.38;;
28296;SDS011;62078;49.366;8.172;2023-03-24T09:38:51;12.05;;;4.18;;
28296;SDS011;62078;49.366;8.172;2023-03-24T09:41:17;10.10;;;3.97;;
28296;SDS011;62078;49.366;8.172;2023-03-24T09:46:41;12.25;;;4.25;;
28296;SDS011;62078;49.366;8.172;2023-03-24T09:49:11;9.85;;;3.97;;
28296;SDS011;62078;49.366;8.172;2023-03-24T09:51:42;12.63;;;3.90;;
28296;SDS011;62078;49.366;8.172;2023-03-24T09:57:10;10.50;;;4.07;;
28296;SDS011;62078;49.366;8.172;2023-03-24T09:59:58;9.68;;;3.88;;
28296;SDS011;62078;49.366;8.172;2023-03-24T10:02:25;11.10;;;3.83;;
28296;SDS011;62078;49.366;8.172;2023-03-24T10:04:54;7.10;;;2.85;;
28296;SDS011;62078;49.366;8.172;2023-03-24T10:07:26;9.93;;;3.67;;
28296;SDS011;62078;49.366;8.172;2023-03-24T10:10:02;9.38;;;3.08;;
28296;SDS011;62078;49.366;8.172;2023-03-24T10:19:51;7.60;;;2.60;;
28296;SDS011;62078;49.366;8.172;2023-03-24T10:22:35;5.50;;;2.80;;
28296;SDS011;62078;49.366;8.172;2023-03-24T10:25:17;8.70;;;3.00;;
28296;SDS011;62078;49.366;8.172;2023-03-24T10:30:22;7.47;;;3.08;;
28296;SDS011;62078;49.366;8.172;2023-03-24T10:32:52;9.65;;;2.72;;
28296;SDS011;62078;49.366;8.172;2023-03-24T10:35:25;8.68;;;3.33;;
28296;SDS011;62078;49.366;8.172;2023-03-24T10:37:55;8.00;;;3.17;;
28296;SDS011;62078;49.366;8.172;2023-03-24T10:40:33;10.25;;;3.38;;
28296;SDS011;62078;49.366;8.172;2023-03-24T10:43:00;6.60;;;2.60;;
28296;SDS011;62078;49.366;8.172;2023-03-24T10:45:32;6.25;;;2.17;;
28296;SDS011;62078;49.366;8.172;2023-03-24T10:48:01;6.72;;;2.92;;
28296;SDS011;62078;49.366;8.172;2023-03-24T10:50:29;5.68;;;2.50;;
28296;SDS011;62078;49.366;8.172;2023-03-24T10:52:57;6.32;;;2.47;;
28296;SDS011;62078;49.366;8.172;2023-03-24T10:55:30;6.18;;;2.28;;
28296;SDS011;62078;49.366;8.172;2023-03-24T10:58:03;8.35;;;2.88;;
28296;SDS011;62078;49.366;8.172;2023-03-24T11:00:42;5.25;;;2.20;;
28296;SDS011;62078;49.366;8.172;2023-03-24T11:03:14;5.93;;;2.47;;
28296;SDS011;62078;49.366;8.172;2023-03-24T11:05:45;6.40;;;2.58;;
28296;SDS011;62078;49.366;8.172;2023-03-24T11:08:13;7.25;;;2.30;;
28296;SDS011;62078;49.366;8.172;2023-03-24T11:10:50;5.90;;;2.15;;
28296;SDS011;62078;49.366;8.172;2023-03-24T11:13:36;8.57;;;2.28;;
28296;SDS011;62078;49.366;8.172;2023-03-24T11:18:33;9.85;;;2.35;;
28296;SDS011;62078;49.366;8.172;2023-03-24T11:21:00;9.15;;;2.05;;
28296;SDS011;62078;49.366;8.172;2023-03-24T11:23:29;8.02;;;2.40;;
28296;SDS011;62078;49.366;8.172;2023-03-24T11:28:41;8.35;;;2.17;;
28296;SDS011;62078;49.366;8.172;2023-03-24T11:31:13;7.85;;;2.75;;
28296;SDS011;62078;49.366;8.172;2023-03-24T11:33:54;6.53;;;2.28;;
28296;SDS011;62078;49.366;8.172;2023-03-24T11:39:01;13.07;;;2.25;;
28296;SDS011;62078;49.366;8.172;2023-03-24T11:41:33;10.45;;;2.17;;
28296;SDS011;62078;49.366;8.172;2023-03-24T11:47:10;6.65;;;2.60;;
28296;SDS011;62078;49.366;8.172;2023-03-24T11:49:47;5.82;;;2.08;;
28296;SDS011;62078;49.366;8.172;2023-03-24T11:52:39;6.80;;;2.05;;
28296;SDS011;62078;49.366;8.172;2023-03-24T11:55:15;7.00;;;2.45;;
28296;SDS011;62078;49.366;8.172;2023-03-24T12:00:29;9.65;;;1.92;;
28296;SDS011;62078;49.366;8.172;2023-03-24T12:14:18;6.38;;;2.10;;
28296;SDS011;62078;49.366;8.172;2023-03-24T12:16:59;4.15;;;1.75;;
28296;SDS011;62078;49.366;8.172;2023-03-24T12:19:49;4.25;;;1.67;;
28296;SDS011;62078;49.366;8.172;2023-03-24T12:22:48;5.28;;;2.13;;
28296;SDS011;62078;49.366;8.172;2023-03-24T12:25:38;4.68;;;1.60;;
28296;SDS011;62078;49.366;8.172;2023-03-24T12:28:24;7.78;;;2.05;;
28296;SDS011;62078;49.366;8.172;2023-03-24T12:31:35;13.60;;;2.57;;
28296;SDS011;62078;49.366;8.172;2023-03-24T12:40:04;13.07;;;2.78;;
28296;SDS011;62078;49.366;8.172;2023-03-24T12:42:48;11.00;;;2.33;;
28296;SDS011;62078;49.366;8.172;2023-03-24T12:45:39;15.55;;;2.13;;
28296;SDS011;62078;49.366;8.172;2023-03-24T12:56:50;11.77;;;1.67;;
28296;SDS011;62078;49.366;8.172;2023-03-24T13:04:45;8.27;;;2.03;;
28296;SDS011;62078;49.366;8.172;2023-03-24T13:07:17;13.70;;;2.50;;
28296;SDS011;62078;49.366;8.172;2023-03-24T13:10:06;24.50;;;3.97;;
28296;SDS011;62078;49.366;8.172;2023-03-24T13:12:50;11.60;;;2.35;;
28296;SDS011;62078;49.366;8.172;2023-03-24T13:15:32;22.02;;;2.80;;
28296;SDS011;62078;49.366;8.172;2023-03-24T13:20:37;10.80;;;2.92;;
28296;SDS011;62078;49.366;8.172;2023-03-24T13:25:52;15.45;;;3.53;;
28296;SDS011;62078;49.366;8.172;2023-03-24T13:28:38;17.33;;;4.35;;
28296;SDS011;62078;49.366;8.172;2023-03-24T13:31:11;19.27;;;3.97;;
28296;SDS011;62078;49.366;8.172;2023-03-24T13:33:38;22.88;;;4.82;;
28296;SDS011;62078;49.366;8.172;2023-03-24T13:36:48;21.25;;;5.82;;
28296;SDS011;62078;49.366;8.172;2023-03-24T13:39:13;25.57;;;5.27;;
28296;SDS011;62078;49.366;8.172;2023-03-24T13:41:45;16.85;;;4.78;;
28296;SDS011;62078;49.366;8.172;2023-03-24T13:44:17;32.78;;;7.93;;
28296;SDS011;62078;49.366;8.172;2023-03-24T13:50:02;30.67;;;7.20;;
28296;SDS011;62078;49.366;8.172;2023-03-24T13:52:34;26.30;;;8.45;;
28296;SDS011;62078;49.366;8.172;2023-03-24T13:55:13;29.95;;;9.55;;
28296;SDS011;62078;49.366;8.172;2023-03-24T13:57:57;34.67;;;9.82;;
28296;SDS011;62078;49.366;8.172;2023-03-24T14:00:35;34.78;;;9.93;;
28296;SDS011;62078;49.366;8.172;2023-03-24T14:03:36;30.73;;;9.77;;
28296;SDS011;62078;49.366;8.172;2023-03-24T14:06:04;33.65;;;10.00;;
28296;SDS011;62078;49.366;8.172;2023-03-24T14:08:41;35.53;;;10.05;;
28296;SDS011;62078;49.366;8.172;2023-03-24T14:14:04;25.90;;;8.70;;
28296;SDS011;62078;49.366;8.172;2023-03-24T14:16:42;27.38;;;9.82;;
28296;SDS011;62078;49.366;8.172;2023-03-24T14:19:24;35.30;;;9.90;;
28296;SDS011;62078;49.366;8.172;2023-03-24T14:24:42;34.33;;;9.90;;
28296;SDS011;62078;49.366;8.172;2023-03-24T14:27:20;37.78;;;11.85;;
28296;SDS011;62078;49.366;8.172;2023-03-24T14:29:53;35.38;;;10.23;;
28296;SDS011;62078;49.366;8.172;2023-03-24T14:32:19;33.13;;;10.48;;
28296;SDS011;62078;49.366;8.172;2023-03-24T14:35:16;30.40;;;9.93;;
28296;SDS011;62078;49.366;8.172;2023-03-24T14:37:57;30.95;;;9.85;;
28296;SDS011;62078;49.366;8.172;2023-03-24T14:40:45;33.00;;;10.27;;
28296;SDS011;62078;49.366;8.172;2023-03-24T14:43:23;30.35;;;9.77;;
28296;SDS011;62078;49.366;8.172;2023-03-24T14:46:00;27.83;;;9.38;;
28296;SDS011;62078;49.366;8.172;2023-03-24T14:48:42;30.70;;;10.05;;
28296;SDS011;62078;49.366;8.172;2023-03-24T14:51:31;27.90;;;9.63;;
28296;SDS011;62078;49.366;8.172;2023-03-24T14:54:01;25.92;;;9.93;;
28296;SDS011;62078;49.366;8.172;2023-03-24T14:56:35;32.15;;;9.63;;
28296;SDS011;62078;49.366;8.172;2023-03-24T14:59:07;27.52;;;10.00;;
28296;SDS011;62078;49.366;8.172;2023-03-24T15:04:09;29.58;;;8.80;;
28296;SDS011;62078;49.366;8.172;2023-03-24T15:06:44;26.67;;;9.65;;
28296;SDS011;62078;49.366;8.172;2023-03-24T15:09:12;26.65;;;9.30;;
28296;SDS011;62078;49.366;8.172;2023-03-24T15:11:40;27.48;;;8.32;;
28296;SDS011;62078;49.366;8.172;2023-03-24T15:14:28;26.95;;;9.05;;
28296;SDS011;62078;49.366;8.172;2023-03-24T15:16:54;27.08;;;9.35;;
28296;SDS011;62078;49.366;8.172;2023-03-24T15:19:30;21.27;;;7.80;;
28296;SDS011;62078;49.366;8.172;2023-03-24T15:22:09;25.00;;;8.90;;
28296;SDS011;62078;49.366;8.172;2023-03-24T15:24:39;25.55;;;9.10;;
28296;SDS011;62078;49.366;8.172;2023-03-24T15:27:12;28.52;;;8.77;;
28296;SDS011;62078;49.366;8.172;2023-03-24T15:29:54;21.48;;;7.93;;
28296;SDS011;62078;49.366;8.172;2023-03-24T15:32:22;24.20;;;8.13;;
28296;SDS011;62078;49.366;8.172;2023-03-24T15:34:52;28.23;;;8.30;;
